Vous êtes sur la page 1sur 9

Voltage Voltage

Timestam Voltage Voltage Voltage Current A Current B


L-L Avg Unbalanc
p A-B Mean B-C Mean C-A Mean Mean Mean
Mean e Mean
22/05/2018 2310.735,001 10.644,067 10.679,129 10.686,057 0,457 93,630 88,716
22/05/2018 2310.714,831 10.624,526 10.660,560 10.666,637 0,451 101,320 95,939
22/05/2018 2310.693,970 10.602,172 10.638,121 10.644,756 0,462 109,351 103,491
22/05/2018 2310.672,030 10.576,635 10.616,373 10.621,680 0,473 118,833 113,986
22/05/2018 2210.768,534 10.673,626 10.713,213 10.718,451 0,468 128,681 123,323
22/05/2018 2210.739,296 10.641,940 10.678,332 10.686,526 0,494 137,503 133,845
22/05/2018 2210.709,880 10.610,160 10.647,426 10.655,828 0,507 145,505 142,650
22/05/2018 2210.769,033 10.671,096 10.704,445 10.714,859 0,506 150,639 146,687
22/05/2018 2110.763,300 10.662,669 10.695,624 10.707,193 0,525 156,469 154,518
22/05/2018 2110.765,052 10.663,769 10.698,245 10.709,026 0,525 161,451 160,440
22/05/2018 2110.734,573 10.635,903 10.670,128 10.680,192 0,510 166,526 164,194
22/05/2018 2110.709,217 10.610,571 10.640,363 10.653,386 0,525 168,217 165,849
22/05/2018 2010.688,344 10.586,797 10.618,308 10.631,148 0,539 167,218 168,290
22/05/2018 2010.667,158 10.570,910 10.600,757 10.612,931 0,512 167,621 167,700
22/05/2018 2010.688,863 10.596,542 10.623,486 10.636,285 0,495 169,341 170,063
22/05/2018 2010.700,112 10.605,539 10.636,042 10.647,233 0,497 170,653 169,487
22/05/2018 1910.692,253 10.597,340 10.626,940 10.638,842 0,502 168,948 168,182
22/05/2018 1910.686,316 10.591,520 10.622,466 10.633,430 0,498 167,850 169,448
22/05/2018 1910.678,925 10.586,672 10.612,037 10.625,873 0,500 162,322 164,479
22/05/2018 1910.664,840 10.575,486 10.601,726 10.614,026 0,479 161,666 161,858
22/05/2018 1810.647,427 10.559,501 10.585,410 10.597,440 0,472 159,846 160,329
22/05/2018 1810.642,838 10.551,191 10.580,783 10.591,604 0,484 158,322 159,855
22/05/2018 1810.643,909 10.557,043 10.585,205 10.595,394 0,458 153,824 152,844
22/05/2018 1810.608,055 10.519,589 10.550,015 10.559,216 0,463 147,868 144,848
22/05/2018 1710.620,244 10.530,473 10.564,460 10.571,725 0,459 140,579 137,370
22/05/2018 1710.676,483 10.589,529 10.626,764 10.630,922 0,429 120,169 118,857
22/05/2018 1710.691,374 10.604,699 10.644,384 10.646,819 0,420 114,721 113,804
22/05/2018 1710.699,430 10.612,694 10.648,071 10.653,397 0,432 111,033 108,976
22/05/2018 1610.689,868 10.598,635 10.639,427 10.642,652 0,444 107,889 105,660
22/05/2018 1610.685,468 10.594,736 10.634,963 10.638,396 0,444 104,634 102,361
22/05/2018 1610.568,255 10.478,582 10.517,802 10.521,543 0,443 109,160 105,349
22/05/2018 1610.559,666 10.471,156 10.509,092 10.513,293 0,440 106,682 104,842
22/05/2018 1510.563,992 10.473,452 10.518,164 10.518,527 0,436 100,389 99,661
22/05/2018 1510.579,941 10.487,600 10.534,144 10.533,894 0,445 101,498 99,214
22/05/2018 1510.584,001 10.492,599 10.537,290 10.537,966 0,441 99,807 98,707
22/05/2018 1510.594,876 10.504,839 10.546,135 10.548,613 0,438 97,431 97,753
22/05/2018 1410.615,681 10.525,686 10.568,362 10.569,918 0,435 94,304 93,883
22/05/2018 1410.622,313 10.534,659 10.576,167 10.577,703 0,423 94,174 94,586
22/05/2018 1410.643,500 10.557,098 10.597,500 10.599,368 0,417 94,870 96,099
22/05/2018 1410.663,256 10.573,143 10.613,150 10.616,509 0,440 94,946 96,086
22/05/2018 1310.669,914 10.582,638 10.620,034 10.624,194 0,430 93,619 93,488
22/05/2018 1310.683,394 10.590,095 10.629,135 10.634,208 0,462 91,699 93,615
22/05/2018 1310.679,269 10.587,849 10.630,692 10.632,609 0,439 91,843 93,871
22/05/2018 1310.652,207 10.557,916 10.604,005 10.604,711 0,451 95,023 96,003
22/05/2018 1210.632,199 10.539,756 10.582,007 10.584,648 0,449 97,319 96,833
22/05/2018 1210.662,982 10.565,590 10.609,469 10.612,685 0,474 96,979 95,619
22/05/2018 1210.695,436 10.600,107 10.640,950 10.645,491 0,470 97,211 95,934
22/05/2018 1210.667,615 10.575,729 10.616,948 10.620,095 0,449 98,663 97,441
22/05/2018 1110.663,269 10.574,437 10.618,526 10.618,751 0,431 100,763 98,473
22/05/2018 1110.670,322 10.577,781 10.618,109 10.622,074 0,455 96,918 96,779
22/05/2018 1110.562,604 10.471,994 10.516,200 10.516,929 0,438 97,455 97,397
22/05/2018 1110.555,961 10.463,589 10.506,694 10.508,756 0,449 96,051 93,180
22/05/2018 1010.559,523 10.473,100 10.512,806 10.515,141 0,422 96,880 93,604
22/05/2018 1010.564,934 10.474,581 10.517,121 10.518,874 0,439 93,236 91,124
22/05/2018 1010.573,797 10.482,414 10.520,789 10.525,660 0,457 100,815 99,791
22/05/2018 1010.569,193 10.474,757 10.520,604 10.521,519 0,457 99,105 98,786
22/05/2018 9:10.582,056 10.486,838 10.531,176 10.533,360 0,462 102,383 102,465
22/05/2018 9:10.548,588 10.451,441 10.498,038 10.499,353 0,470 101,875 102,005
22/05/2018 9:10.563,511 10.471,088 10.512,030 10.515,551 0,455 100,918 101,602
22/05/2018 9:10.561,033 10.467,405 10.509,885 10.512,768 0,458 101,540 102,896
22/05/2018 8:10.565,646 10.475,501 10.519,355 10.520,170 0,438 104,542 102,944
22/05/2018 8:10.583,056 10.490,211 10.533,615 10.535,620 0,453 106,229 105,446
22/05/2018 8:10.611,478 10.514,720 10.558,047 10.561,411 0,473 103,819 105,086
22/05/2018 8:10.645,830 10.543,911 10.588,863 10.592,861 0,499 106,987 111,710
22/05/2018 7:10.653,940 10.555,644 10.596,696 10.602,091 0,488 111,683 108,848
22/05/2018 7:10.665,510 10.564,881 10.600,261 10.610,216 0,520 116,834 117,507
22/05/2018 7:10.680,365 10.572,062 10.617,958 10.623,454 0,535 121,023 121,744
22/05/2018 7:10.691,520 10.595,513 10.637,905 10.641,641 0,468 122,564 119,677
22/05/2018 6:10.709,992 10.610,285 10.650,614 10.656,965 0,497 119,939 117,794
22/05/2018 6:10.725,481 10.629,627 10.666,895 10.673,983 0,481 109,407 107,233
22/05/2018 6:10.732,869 10.642,241 10.674,524 10.683,213 0,464 99,772 94,386
22/05/2018 6:10.731,054 10.639,898 10.675,422 10.682,126 0,457 93,735 90,095
22/05/2018 5:10.743,968 10.656,671 10.690,870 10.697,168 0,437 84,282 82,689
22/05/2018 5:10.751,661 10.667,387 10.701,201 10.706,749 0,418 80,763 78,687
22/05/2018 5:10.762,435 10.676,410 10.709,977 10.716,268 0,430 75,273 73,096
22/05/2018 5:10.772,193 10.685,735 10.721,983 10.726,645 0,424 70,999 69,381
22/05/2018 4:10.779,150 10.693,569 10.727,789 10.733,508 0,425 66,977 64,219
22/05/2018 4:10.781,602 10.693,937 10.727,632 10.734,389 0,439 64,527 62,635
22/05/2018 4:10.781,373 10.693,618 10.728,876 10.734,616 0,435 63,865 62,749
22/05/2018 4:10.789,178 10.700,646 10.736,615 10.742,150 0,437 63,167 62,570
22/05/2018 3:10.798,039 10.707,844 10.743,448 10.749,790 0,448 63,698 61,980
22/05/2018 3:10.791,564 10.702,332 10.735,916 10.743,272 0,449 63,517 61,911
22/05/2018 3:10.771,874 10.684,132 10.719,993 10.725,331 0,433 63,014 60,634
22/05/2018 3:10.768,379 10.678,349 10.717,090 10.721,277 0,439 64,348 62,021
22/05/2018 2:10.761,938 10.672,083 10.709,406 10.714,476 0,442 64,113 62,811
22/05/2018 2:10.769,344 10.679,362 10.716,874 10.721,855 0,442 64,839 63,370
22/05/2018 2:10.767,543 10.679,645 10.714,650 10.720,614 0,437 65,354 63,719
22/05/2018 2:10.762,391 10.676,080 10.710,201 10.716,227 0,430 65,993 64,048
22/05/2018 1:10.764,527 10.676,710 10.710,511 10.717,242 0,440 67,340 65,404
22/05/2018 1:10.766,046 10.678,405 10.712,575 10.719,011 0,438 68,014 65,791
22/05/2018 1:10.752,688 10.662,930 10.700,021 10.705,217 0,443 69,911 67,906
22/05/2018 1:10.748,572 10.656,944 10.695,338 10.700,289 0,451 71,941 69,908
22/05/2018 0:10.742,460 10.652,800 10.689,865 10.695,040 0,443 75,258 73,004
22/05/2018 0:10.739,345 10.649,411 10.685,942 10.691,565 0,446 77,271 75,746
22/05/2018 0:10.730,834 10.639,808 10.675,339 10.681,980 0,457 81,608 79,275
Power Power
Real Reactive Apparent
Current C Current Current N Factor Factor
Power Power Power
Mean Avg Mean Mean Lagging Leading
Mean Mean Mean
Mean Mean
92,519 91,621 - 1.677,104 242,246 1.694,520 98,971 -
98,549 98,603 - 1.803,917 245,771 1.820,590 99,084 -
105,271 106,038 - 1.936,836 258,513 1.954,017 99,121 -
115,437 116,085 - 2.115,446 287,287 2.134,870 99,090 -
125,802 125,936 - 2.312,062 341,804 2.337,198 98,924 -
134,481 135,277 - 2.477,462 358,724 2.503,303 98,967 -
142,526 143,560 - 2.622,354 375,919 2.649,168 98,988 -
149,266 148,864 - 2.732,614 402,262 2.762,106 98,934 -
155,900 155,629 - 2.853,282 429,303 2.885,403 98,887 -
160,947 160,946 - 2.947,871 466,181 2.984,535 98,772 -
164,847 165,189 - 3.014,798 494,153 3.055,036 98,683 -
168,575 167,547 - 3.050,758 495,305 3.090,706 98,707 -
169,738 168,415 - 3.059,679 498,939 3.100,096 98,696 -
169,506 168,275 - 3.049,887 510,516 3.092,326 98,628 -
172,273 170,559 - 3.094,620 539,272 3.141,281 98,515 -
171,599 170,580 - 3.094,566 560,545 3.144,934 98,399 -
168,908 168,679 - 3.056,948 558,140 3.107,496 98,373 -
167,772 168,356 - 3.047,264 568,813 3.099,918 98,301 -
165,198 164,000 - 2.965,988 554,098 3.017,314 98,299 -
161,144 161,556 - 2.916,437 557,753 2.969,304 98,220 -
160,544 160,240 - 2.889,701 544,290 2.940,519 98,272 -
157,262 158,480 - 2.851,447 563,471 2.906,619 98,102 -
154,060 153,576 - 2.759,975 566,491 2.817,528 97,957 -
145,422 146,046 - 2.612,441 551,590 2.670,127 97,837 -
136,989 138,313 - 2.466,795 569,376 2.531,741 97,432 -
116,411 118,479 - 2.115,402 530,237 2.180,860 96,998 -
110,875 113,133 - 2.013,434 543,793 2.085,680 96,532 -
108,148 109,386 - 1.949,235 521,043 2.017,822 96,606 -
104,651 106,067 - 1.896,289 473,770 1.954,600 97,017 -
102,321 103,105 - 1.841,126 466,170 1.899,286 96,938 -
104,082 106,197 - 1.875,800 472,611 1.934,453 96,969 -
103,785 105,103 - 1.852,218 479,180 1.913,252 96,808 -
97,850 99,300 - 1.744,027 479,004 1.808,628 96,428 -
96,898 99,203 - 1.746,548 472,555 1.809,371 96,528 -
95,641 98,052 - 1.725,670 471,927 1.789,066 96,456 -
94,906 96,697 - 1.709,758 442,817 1.766,193 96,805 -
92,994 93,727 - 1.655,975 447,814 1.715,484 96,532 -
93,387 94,049 - 1.669,241 424,558 1.722,457 96,911 -
94,326 95,099 - 1.694,606 416,030 1.745,012 97,113 -
94,208 95,080 - 1.696,255 419,940 1.747,526 97,067 -
92,003 93,037 - 1.658,214 422,483 1.711,208 96,904 -
91,486 92,267 - 1.642,100 434,054 1.698,536 96,676 -
90,171 91,962 - 1.632,506 446,765 1.692,577 96,451 -
92,183 94,403 - 1.664,133 483,663 1.733,060 96,023 -
94,964 96,372 - 1.697,887 485,667 1.766,013 96,143 -
92,428 95,009 - 1.679,884 473,862 1.745,481 96,241 -
92,151 95,099 - 1.690,440 462,408 1.752,583 96,455 -
94,845 96,983 - 1.720,158 469,543 1.783,122 96,468 -
92,067 97,101 - 1.724,592 457,890 1.784,385 96,649 -
91,486 95,061 - 1.691,043 441,826 1.747,845 96,751 -
92,859 95,904 - 1.691,727 432,217 1.746,098 96,886 -
92,427 93,886 - 1.653,802 428,037 1.708,363 96,805 -
90,029 93,504 - 1.649,026 421,285 1.702,018 96,886 -
87,062 90,474 - 1.596,268 407,818 1.647,589 96,882 -
94,057 98,221 - 1.731,300 451,788 1.789,288 96,759 -
92,813 96,901 - 1.710,744 432,684 1.764,643 96,946 -
96,661 100,503 - 1.781,734 428,023 1.832,466 97,232 -
98,492 100,791 - 1.791,144 384,590 1.832,021 97,769 -
97,523 100,014 - 1.777,737 392,785 1.820,638 97,644 -
98,784 101,073 - 1.800,016 378,482 1.839,472 97,853 -
101,044 102,843 - 1.840,158 349,557 1.873,085 98,241 -
104,212 105,296 - 1.889,260 345,545 1.920,640 98,366 -
104,241 104,382 - 1.879,803 330,271 1.908,605 98,491 -
107,873 108,856 - 1.968,626 328,767 1.995,923 98,631 -
109,224 109,918 - 1.990,826 328,092 2.017,742 98,665 -
117,081 117,140 - 2.127,829 321,627 2.152,032 98,874 -
122,053 121,606 - 2.211,981 332,652 2.236,874 98,886 -
120,112 120,784 - 2.198,748 344,962 2.225,657 98,791 -
116,646 118,126 - 2.154,657 328,826 2.179,613 98,854 -
103,592 106,744 - 1.947,034 315,073 1.972,385 98,713 -
95,698 96,619 - 1.762,305 290,048 1.786,046 98,669 -
90,578 91,469 - 1.667,869 274,107 1.690,252 98,676 -
83,336 83,436 - 1.523,961 247,596 1.543,954 98,705 -
79,815 79,755 - 1.456,085 248,749 1.477,191 98,571 -
74,563 74,311 - 1.357,658 231,862 1.377,332 98,571 -
70,611 70,330 - 1.284,672 229,204 1.304,972 98,443 -
66,861 66,019 - 1.204,382 228,105 1.225,807 98,252 -
65,141 64,101 - 1.169,379 222,197 1.190,312 98,242 -
64,495 63,703 - 1.160,522 229,138 1.182,960 98,104 -
64,105 63,281 - 1.152,865 231,398 1.175,868 98,044 -
64,409 63,362 - 1.154,282 236,108 1.178,229 97,968 -
64,084 63,171 - 1.152,437 225,755 1.174,349 98,135 -
63,031 62,226 - 1.134,027 218,149 1.154,836 98,199 -
63,737 63,369 - 1.152,333 233,330 1.175,737 98,010 -
64,297 63,740 - 1.159,277 230,276 1.181,947 98,082 -
64,700 64,303 - 1.171,145 228,700 1.193,286 98,145 -
65,197 64,757 - 1.179,024 231,603 1.201,570 98,124 -
65,708 65,250 - 1.189,160 224,400 1.210,176 98,264 -
66,755 66,500 - 1.211,845 229,852 1.233,477 98,247 -
67,242 67,016 - 1.222,599 224,913 1.243,126 98,348 -
69,237 69,018 - 1.260,481 212,066 1.278,211 98,613 -
72,226 71,358 - 1.304,464 207,635 1.320,917 98,754 -
75,193 74,485 - 1.359,617 226,222 1.378,325 98,644 -
77,388 76,802 - 1.401,850 231,642 1.420,874 98,661 -
81,528 80,804 - 1.475,805 230,051 1.493,636 98,806 -
Frequenc
y Mean

59,998
60,009
59,997
59,998
60,015
60,000
59,999
60,001
60,002
59,994
59,999
60,002
60,001
59,999
60,004
60,002
59,998
59,998
60,002
60,003
60,000
59,997
59,999
59,999
60,012
59,999
60,001
60,002
60,006
59,994
60,002
60,007
59,986
60,006
60,000
59,999
60,002
60,009
59,997
60,002
59,995
59,992
60,017
60,006
59,998
59,998
59,997
60,001
60,006
60,014
60,000
60,006
60,000
59,998
60,005
59,998
60,002
59,996
60,000
60,002
60,001
60,001
59,997
59,998
60,007
60,000
60,000
60,006
60,000
60,004
59,997
59,995
59,998
59,995
59,994
60,009
59,997
60,003
60,001
59,996
59,995
60,008
60,008
60,017
60,009
59,997
60,024
60,004
60,009
60,006
60,003
59,995
60,001
60,003
60,016